NEODyS-2

Near Earth Objects - Dynamic Site
NEODyS ∴ Observatories ∴ Site 691 ∴ Obs & residuals
Contact »
691  ▹ 
OBSERVATIONS AND RESIDUALS

691-Steward Observatory, Kitt Peak-Spacewatch

Detections | Residuals | Detections & Residuals

[1-200] [201-400] [401-600] [601-800] [801-1000] [1001-1200] [1201-1400] [1401-1600] [1601-1800] [1801-2000] [2001-2200] [2201-2400] [2401-2600] [2601-2800] [2801-3000] [3001-3200] [3201-3400] [3401-3600] [3601-3800] [3801-4000] [4001-4200] [4201-4400] [4401-4600] [4601-4800] [4801-5000] [5001-5200] [5201-5400] [5401-5600] [5601-5800] [5801-6000] [6001-6200] [6201-6400] [6401-6600] [6601-6800] [6801-7000] [7001-7200] [7201-7400] [7401-7600] [7601-7800] [7801-8000] [8001-8200] [8201-8400] [8401-8600] [8601-8800] [8801-9000] [9001-9200] [9201-9400] [9401-9600] [9601-9800] [9801-10000] [10001-10200] [10201-10400] [10401-10600] [10601-10800] [10801-11000] [11001-11200] [11201-11400] [11401-11600] [11601-11800] [11801-12000] [12001-12200] [12201-12400] [12401-12600] [12601-12800] [12801-13000] [13001-13200] [13201-13400] [13401-13600] [13601-13800] [13801-14000] [14001-14200] [14201-14400] [14401-14600] [14601-14800] [14801-15000] [15001-15200] [15201-15400] [15401-15600] [15601-15800] [15801-16000] [16001-16200] [16201-16400] [16401-16600] [16601-16800] [16801-17000] [17001-17200] [17201-17400] [17401-17600] [17601-17800] [17801-18000] [18001-18200] [18201-18400] [18401-18600] [18601-18800] [18801-19000] [19001-19200] [19201-19400] [19401-19600] [19601-19800] [19801-20000] [20001-20200] [20201-20400] [20401-20600] [20601-20800] [20801-21000] [21001-21200] [21201-21400] [21401-21600] [21601-21800] [21801-22000] [22001-22200] [22201-22400] [22401-22600] [22601-22800] [22801-23000] [23001-23200] [23201-23400] [23401-23600] [23601-23800] [23801-24000] [24001-24200] [24201-24400] [24401-24600] [24601-24800] [24801-25000] [25001-25200] [25201-25400] [25401-25600] [25601-25800] [25801-26000] [26001-26200] [26201-26400] [26401-26600] [26601-26800] [26801-27000] [27001-27200] [27201-27400] [27401-27600] [27601-27800] [27801-28000] [28001-28200] [28201-28400] [28401-28600] [28601-28800] [28801-29000] [29001-29200] [29201-29400] [29401-29600] [29601-29800] [29801-30000] [30001-30200] [30201-30400] [30401-30600] [30601-30800] [30801-31000] [31001-31200] [31201-31400] [31401-31600] [31601-31800] [31801-32000] [32001-32200] [32201-32400] [32401-32600] [32601-32800] [32801-33000] [33001-33200] [33201-33400] [33401-33600] [33601-33800] [33801-34000] [34001-34200] [34201-34400] [34401-34600] [34601-34800] [34801-35000] [35001-35200] [35201-35400] [35401-35600] [35601-35800] [35801-36000] [36001-36200] [36201-36400] [36401-36600] [36601-36800] [36801-37000] [37001-37200] [37201-37400] [37401-37600] [37601-37800] [37801-38000] [38001-38200] [38201-38400] [38401-38600] [38601-38800] [38801-39000] [39001-39200] [39201-39400] [39401-39600] [39601-39800] [39801-40000] [40001-40200] [40201-40400] [40401-40600] [40601-40800] [40801-41000] [41001-41200] [41201-41400] [41401-41600] [41601-41800] [41801-42000] [42001-42200] [42201-42400] [42401-42600] [42601-42800] [42801-43000] [43001-43200] [43201-43400] [43401-43600] [43601-43800] [43801-44000] [44001-44200] [44201-44400] [44401-44600] [44601-44800] [44801-45000] [45001-45200] [45201-45400] [45401-45600] [45601-45800] [45801-46000] [46001-46200] [46201-46400] [46401-46600] [46601-46800] [46801-47000] [47001-47200] [47201-47400] [47401-47600] [47601-47800] [47801-48000] [48001-48200] [48201-48400] [48401-48600] [48601-48800] [48801-49000] [49001-49200] [49201-49400] [49401-49600] [49601-49800] [49801-50000] [50001-50200] [50201-50388]

Designation T Tech N Date Right Ascension Declination Apparent Magnitude Star Catalog Site code χ Used A Used M
yr-mo-day precision hr:min:sec precision rms F bias residual deg min sec precision rms F bias residual mag/col rms residual
2015HF11 O C K 2018-05-22.38854 1.000E-05 19:27:49.500 1.500E-01 0.500 F -0.181 0.037 +18° 16' 10.50" 1.000E-01 0.500 F 0.397 0.282 o 691 0.57 Yes No
2015HF11 O C K 2018-05-22.39283 1.000E-05 19:27:49.370 1.500E-01 0.500 F -0.181 0.549 +18° 16' 25.50" 1.000E-01 0.500 F 0.397 -0.527 o 691 1.53 Yes No
2015HF11 O C K 2018-05-22.39711 1.000E-05 19:27:49.180 1.500E-01 0.500 F -0.181 0.204 +18° 16' 41.70" 1.000E-01 0.500 F 0.397 -0.095 o 691 0.46 Yes No
2018JD5 O C K 2018-05-22.43092 1.000E-05 22:38:49.160 1.500E-01 0.500 F -0.165 0.086 -08° 14' 16.10" 1.000E-01 0.500 F 0.339 0.095 o 691 0.26 Yes No
2018JD5 O C K 2018-05-22.44284 1.000E-05 22:38:52.670 1.500E-01 0.500 F -0.165 0.075 -08° 13' 49.10" 1.000E-01 0.500 F 0.339 0.125 o 691 0.29 Yes No
2018JD5 O C K 2018-05-22.45476 1.000E-05 22:38:56.150 1.500E-01 0.500 F -0.165 -0.317 -08° 13' 22.10" 1.000E-01 0.500 F 0.339 0.148 o 691 0.70 Yes No
2018KD2 O C K 2018-05-23.14991 1.000E-05 13:10:59.870 1.500E-01 0.500 F 0.175 0.014 -21° 49' 32.70" 1.000E-01 0.500 F -0.040 -0.108 o 691 0.23 Yes No
2018KD2 O C K 2018-05-23.15973 1.000E-05 13:11:06.330 1.500E-01 0.500 F 0.175 -0.069 -21° 49' 08.40" 1.000E-01 0.500 F -0.040 0.198 o 691 0.45 Yes No
2018KD2 O C K 2018-05-23.16955 1.000E-05 13:11:12.720 1.500E-01 0.500 F 0.175 -0.475 -21° 48' 44.40" 1.000E-01 0.500 F -0.040 -0.050 o 691 1.04 Yes No
2018JL O C 2018-05-23.18143 1.000E-05 14:35:50.780 1.500E-01 0.500 F 0.261 -0.211 -07° 41' 35.00" 1.000E-01 0.500 F -0.025 0.109 19.2 V 0.70 0.29 o 691 0.48 Yes Yes
2018JL O C 2018-05-23.18506 1.000E-05 14:35:50.260 1.500E-01 0.500 F 0.261 -0.242 -07° 41' 54.80" 1.000E-01 0.500 F -0.025 0.049 19.4 V 0.70 0.49 o 691 0.50 Yes Yes
2018JL O C 2018-05-23.18869 1.000E-05 14:35:49.750 1.500E-01 0.500 F 0.261 -0.116 -07° 42' 14.80" 1.000E-01 0.500 F -0.025 -0.211 19.6 V 0.70 0.69 o 691 0.49 Yes Yes
2018JO1 O C K 2018-05-23.22698 1.000E-05 14:57:11.310 1.500E-01 0.500 F 0.127 -0.057 +16° 14' 56.80" 1.000E-01 0.500 F 0.283 0.252 o 691 0.52 Yes No
2018JO1 O C K 2018-05-23.24565 1.000E-05 14:57:14.560 1.500E-01 0.500 F 0.127 -0.127 +16° 15' 21.60" 1.000E-01 0.500 F 0.283 -0.408 o 691 0.87 Yes No
2018JO1 O C K 2018-05-23.26433 1.000E-05 14:57:17.810 1.500E-01 0.500 F 0.127 -0.014 +16° 15' 46.70" 1.000E-01 0.500 F 0.283 -0.390 o 691 0.79 Yes No
2018KE2 O C K 2018-05-23.29489 1.000E-05 15:16:49.030 1.500E-01 0.500 F 0.039 -0.019 +00° 40' 22.00" 1.000E-01 0.500 F 0.239 0.463 o 691 1.01 Yes No
2018KE2 O C K 2018-05-23.30576 1.000E-05 15:16:50.830 1.500E-01 0.500 F 0.039 -0.132 +00° 41' 17.00" 1.000E-01 0.500 F 0.239 -1.015 o 691 2.26 Yes No
2018KL2 O C K 2018-05-23.32915 1.000E-05 15:59:41.970 1.500E-01 0.500 F 0.201 -0.158 -01° 45' 55.80" 1.000E-01 0.500 F 0.199 -0.370 o 691 0.81 Yes No
2018KL2 O C K 2018-05-23.33427 1.000E-05 15:59:40.860 1.500E-01 0.500 F 0.201 -0.200 -01° 45' 42.80" 1.000E-01 0.500 F 0.199 -0.596 o 691 1.27 Yes No
2018KL2 O C K 2018-05-23.33938 1.000E-05 15:59:39.780 1.500E-01 0.500 F 0.201 0.173 -01° 45' 28.60" 1.000E-01 0.500 F 0.199 0.401 o 691 0.88 Yes No
2015MB54 O C K 2018-05-23.45355 1.000E-05 18:21:16.250 1.500E-01 0.500 F 0.108 0.282 +25° 35' 10.60" 1.000E-01 0.500 F 0.181 -0.310 o 691 0.86 Yes No
2001KR1 O C 2018-05-23.45355 1.000E-05 18:20:03.440 1.500E-01 0.500 F 0.065 -0.154 +25° 24' 00.20" 1.000E-01 0.500 F 0.252 -0.137 18.4 V 0.70 0.58 o 691 0.41 Yes Yes
2015MB54 O C K 2018-05-23.45718 1.000E-05 18:21:16.090 1.500E-01 0.500 F 0.108 0.412 +25° 34' 52.10" 1.000E-01 0.500 F 0.181 -0.395 o 691 1.17 Yes No
2001KR1 O C 2018-05-23.45718 1.000E-05 18:20:03.150 1.500E-01 0.500 F 0.065 -0.059 +25° 24' 16.70" 1.000E-01 0.500 F 0.252 -0.216 18.4 V 0.70 0.59 o 691 0.45 Yes Yes
2015MB54 O C K 2018-05-23.46080 1.000E-05 18:21:15.910 1.500E-01 0.500 F 0.108 0.246 +25° 34' 34.40" 1.000E-01 0.500 F 0.181 0.290 o 691 0.78 Yes No
2001KR1 O C 2018-05-23.46080 1.000E-05 18:20:02.850 1.500E-01 0.500 F 0.065 -0.111 +25° 24' 33.20" 1.000E-01 0.500 F 0.252 -0.248 18.2 V 0.70 0.39 o 691 0.55 Yes Yes
2018KK2 O C K 2018-05-24.15109 1.000E-05 10:56:09.570 1.500E-01 0.500 F 0.300 -0.050 -11° 10' 36.40" 1.000E-01 0.500 F 0.095 0.131 o 691 0.28 Yes No
2018KK2 O C K 2018-05-24.16458 1.000E-05 10:56:10.120 1.500E-01 0.500 F 0.300 -0.513 -11° 10' 30.10" 1.000E-01 0.500 F 0.095 0.143 o 691 1.07 Yes No
2018KK2 O C K 2018-05-24.17807 1.000E-05 10:56:10.670 1.500E-01 0.500 F 0.300 -0.999 -11° 10' 24.40" 1.000E-01 0.500 F 0.095 -0.451 o 691 2.20 Yes No
2017KU34 O C K 2018-05-24.19215 1.000E-05 13:12:41.570 1.500E-01 0.500 F 0.213 -0.299 -14° 26' 08.70" 1.000E-01 0.500 F -0.010 0.005 o 691 0.60 Yes No
2017KU34 O C K 2018-05-24.20613 1.000E-05 13:12:37.910 1.500E-01 0.500 F 0.213 0.296 -14° 26' 20.50" 1.000E-01 0.500 F -0.010 0.217 o 691 0.74 Yes No
2017KU34 O C K 2018-05-24.22013 1.000E-05 13:12:34.160 1.500E-01 0.500 F 0.213 -0.403 -14° 26' 32.20" 1.000E-01 0.500 F -0.010 0.434 o 691 1.20 Yes No
2010MS1 O C K 2018-05-24.23896 1.000E-05 15:05:05.680 1.500E-01 0.500 F 0.160 -0.012 +27° 24' 50.00" 1.000E-01 0.500 F 0.180 0.020 o 691 0.05 Yes No
2010MS1 O C K 2018-05-24.24622 1.000E-05 15:05:03.810 1.500E-01 0.500 F 0.182 -0.194 +27° 24' 20.50" 1.000E-01 0.500 F 0.256 -0.171 o 691 0.53 Yes No
2010MS1 O C K 2018-05-24.25348 1.000E-05 15:05:01.940 1.500E-01 0.500 F 0.182 -0.351 +27° 23' 51.40" 1.000E-01 0.500 F 0.256 0.157 o 691 0.78 Yes No
2009OO9 O C K 2018-05-24.36725 1.000E-05 17:35:24.810 1.500E-01 0.500 F -0.123 0.545 -01° 30' 51.70" 1.000E-01 0.500 F 0.133 0.240 o 691 1.21 Yes No
2009OO9 O C K 2018-05-24.38124 1.000E-05 17:35:22.920 1.500E-01 0.500 F -0.123 0.029 -01° 30' 51.20" 1.000E-01 0.500 F 0.133 -0.410 o 691 0.83 Yes No
2018GL1 O C K 2018-05-24.39763 1.000E-05 20:35:55.180 1.500E-01 0.500 F -0.054 0.179 +13° 30' 47.00" 1.000E-01 0.500 F 0.231 0.067 o 691 0.38 Yes No
2018GL1 O C K 2018-05-24.40075 1.000E-05 20:35:57.000 1.500E-01 0.500 F -0.054 -0.203 +13° 30' 17.80" 1.000E-01 0.500 F 0.231 -0.105 o 691 0.46 Yes No
2018GL1 O C K 2018-05-24.40389 1.000E-05 20:35:58.870 1.500E-01 0.500 F -0.054 0.019 +13° 29' 48.80" 1.000E-01 0.500 F 0.231 0.119 o 691 0.24 Yes No
1999FN19 O C 2018-05-24.41053 1.000E-05 21:17:09.850 1.500E-01 0.500 F -0.004 -0.075 +19° 45' 23.60" 1.000E-01 0.500 F 0.181 -0.297 19.5 V 0.70 0.10 o 691 0.61 Yes Yes
1999FN19 O C 2018-05-24.41391 1.000E-05 21:17:09.730 1.500E-01 0.500 F -0.004 -0.038 +19° 45' 08.20" 1.000E-01 0.500 F 0.181 -0.213 19.9 V 0.70 0.50 o 691 0.43 Yes Yes
1999FN19 O C 2018-05-24.41729 1.000E-05 21:17:09.600 1.500E-01 0.500 F -0.004 -0.106 +19° 44' 52.80" 1.000E-01 0.500 F 0.181 -0.119 19.8 V 0.70 0.40 o 691 0.32 Yes Yes
2012LF11 O C K 2018-05-24.42563 1.000E-05 21:57:59.060 1.500E-01 0.500 F 0.017 0.352 +10° 53' 32.40" 1.000E-01 0.500 F 0.186 -0.026 o 691 0.71 Yes No
2012LF11 O C K 2018-05-24.43030 1.000E-05 21:57:58.530 1.500E-01 0.500 F 0.017 -0.158 +10° 53' 40.00" 1.000E-01 0.500 F 0.186 0.223 o 691 0.56 Yes No
2018KR2 O C H 2018-05-24.46745 1.000E-05 20:41:20.830 1.500E-01 0.500 F 0.165 -0.196 -28° 39' 57.50" 1.000E-01 0.500 F 0.361 -0.121 18.2 R 0.70 -0.72 o 691 0.46 Yes Yes
2018KR2 O C H 2018-05-24.46867 1.000E-05 20:41:21.270 1.500E-01 0.500 F 0.165 0.003 -28° 39' 57.80" 1.000E-01 0.500 F 0.361 0.059 18.8 R 0.70 -0.12 o 691 0.12 Yes Yes
2018KR2 O C H 2018-05-24.46988 1.000E-05 20:41:21.670 1.500E-01 0.500 F 0.165 -0.279 -28° 39' 58.50" 1.000E-01 0.500 F 0.361 -0.166 18.9 R 0.70 -0.02 o 691 0.65 Yes Yes
2018KG1 O C K 2018-05-25.20322 1.000E-05 14:23:31.120 1.500E-01 0.500 F 0.317 -0.157 -15° 56' 37.30" 1.000E-01 0.500 F 0.135 0.035 o 691 0.32 Yes No
2018KO1 O C K 2018-05-25.22327 1.000E-05 15:26:52.750 1.500E-01 0.500 F 0.216 -0.134 -26° 21' 48.40" 1.000E-01 0.500 F 0.356 -0.050 o 691 0.32 Yes No
2018KG1 O C K 2018-05-25.23850 1.000E-05 14:23:27.910 1.500E-01 0.500 F 0.317 0.083 -15° 56' 10.50" 1.000E-01 0.500 F 0.135 -0.239 o 691 0.51 Yes No
2018KO1 O C K 2018-05-25.25870 1.000E-05 15:26:55.350 1.500E-01 0.500 F 0.216 -0.434 -26° 20' 51.40" 1.000E-01 0.500 F 0.356 0.113 o 691 0.98 Yes No
2018KG1 O C K 2018-05-25.27421 1.000E-05 14:23:24.630 1.500E-01 0.500 F 0.317 -0.146 -15° 55' 42.50" 1.000E-01 0.500 F 0.135 0.207 o 691 0.51 Yes No
2018KT2 O C H 2018-05-25.30970 1.000E-05 15:32:58.190 1.500E-01 0.500 F 0.220 0.336 -08° 52' 42.20" 1.000E-01 0.500 F 0.032 -1.135 o 691 2.53 Yes No
2018JQ1 O C K 2018-05-25.31092 1.000E-05 15:43:59.700 1.500E-01 0.500 F 0.126 -0.069 -01° 48' 45.20" 1.000E-01 0.500 F 0.216 0.098 o 691 0.24 Yes No
2018KL2 O C K 2018-05-25.31498 1.000E-05 15:52:42.810 1.500E-01 0.500 F 0.194 0.411 -00° 19' 13.60" 1.000E-01 0.500 F 0.185 0.680 o 691 1.60 Yes No
2018KT2 O C H 2018-05-25.32281 1.000E-05 15:33:11.110 1.500E-01 0.500 F 0.220 -0.296 -09° 00' 09.10" 1.000E-01 0.500 F 0.032 0.832 o 691 1.89 Yes No
2018JQ1 O C K 2018-05-25.32403 1.000E-05 15:44:01.350 1.500E-01 0.500 F 0.126 -0.310 -01° 48' 16.40" 1.000E-01 0.500 F 0.216 1.375 o 691 2.84 Yes No
2018KL2 O C K 2018-05-25.32809 1.000E-05 15:52:39.750 1.500E-01 0.500 F 0.194 -0.829 -00° 18' 39.30" 1.000E-01 0.500 F 0.185 0.186 o 691 1.71 Yes No
2018KT2 O C H 2018-05-25.33591 1.000E-05 15:33:24.050 1.500E-01 0.500 F 0.220 0.128 -09° 07' 34.60" 1.000E-01 0.500 F 0.032 -0.716 o 691 1.55 Yes No
2018JQ1 O C K 2018-05-25.33714 1.000E-05 15:44:03.040 1.500E-01 0.500 F 0.126 0.010 -01° 47' 50.10" 1.000E-01 0.500 F 0.216 0.162 o 691 0.33 Yes No
2018KL2 O C K 2018-05-25.34259 1.000E-05 15:52:36.490 1.500E-01 0.500 F 0.194 -0.357 -00° 18' 00.90" 1.000E-01 0.500 F 0.185 0.096 o 691 0.74 Yes No
2018JV2 O C K 2018-05-25.34944 1.000E-05 16:21:24.710 1.500E-01 0.500 F 0.069 -0.253 -03° 05' 14.10" 1.000E-01 0.500 F 0.290 0.391 o 691 0.94 Yes No
2018KQ1 O C K 2018-05-25.36471 1.000E-05 17:15:58.790 1.500E-01 0.500 F -0.042 -0.180 -03° 35' 46.80" 1.000E-01 0.500 F 0.262 0.248 o 691 0.62 Yes No
2018JV2 O C K 2018-05-25.37158 1.000E-05 16:21:25.540 1.500E-01 0.500 F 0.069 0.190 -03° 06' 04.50" 1.000E-01 0.500 F 0.290 0.134 o 691 0.47 Yes No
2018KQ1 O C K 2018-05-25.38684 1.000E-05 17:16:06.220 1.500E-01 0.500 F -0.042 0.077 -03° 31' 57.00" 1.000E-01 0.500 F 0.262 0.001 o 691 0.15 Yes No
2018JV2 O C K 2018-05-25.39371 1.000E-05 16:21:26.370 1.500E-01 0.500 F 0.069 0.282 -03° 06' 55.00" 1.000E-01 0.500 F 0.290 -0.283 o 691 0.81 Yes No
2018KQ1 O C K 2018-05-25.40895 1.000E-05 17:16:13.640 1.500E-01 0.500 F -0.042 -0.164 -03° 28' 06.50" 1.000E-01 0.500 F 0.262 0.198 o 691 0.52 Yes No
1999LW1 O C H 2018-05-25.42016 1.000E-05 18:19:22.570 1.500E-01 0.500 F -0.143 -0.245 -00° 22' 48.00" 1.000E-01 0.500 F 0.230 0.051 19.5 R 0.70 0.65 o 691 0.51 Yes Yes
2018KR2 O C 2018-05-25.42237 1.000E-05 20:47:05.270 1.500E-01 0.500 F 0.069 -0.126 -28° 45' 41.40" 1.000E-01 0.500 F 0.330 -0.196 19.4 V 0.70 0.10 o 691 0.47 Yes Yes
1999LW1 O C H 2018-05-25.42831 1.000E-05 18:19:23.020 1.500E-01 0.500 F -0.143 -0.368 -00° 22' 12.40" 1.000E-01 0.500 F 0.230 -0.152 19.3 R 0.70 0.45 o 691 0.86 Yes Yes
2018KR2 O C 2018-05-25.43058 1.000E-05 20:47:08.190 1.500E-01 0.500 F 0.069 0.151 -28° 45' 44.20" 1.000E-01 0.500 F 0.330 0.048 19.3 V 0.70 0.00 o 691 0.32 Yes Yes
1999LW1 O C H 2018-05-25.43658 1.000E-05 18:19:23.510 1.500E-01 0.500 F -0.143 -0.008 -00° 21' 36.30" 1.000E-01 0.500 F 0.230 -0.410 19.8 R 0.70 0.95 o 691 0.96 Yes Yes
2018KR2 O C 2018-05-25.43899 1.000E-05 20:47:11.150 1.500E-01 0.500 F 0.069 0.047 -28° 45' 47.10" 1.000E-01 0.500 F 0.330 0.237 19.3 V 0.70 0.00 o 691 0.49 Yes Yes
2018KF3 O C K 2018-05-27.32462 1.000E-05 20:50:36.670 1.500E-01 0.500 F 0.052 -0.605 +08° 08' 31.50" 1.000E-01 0.500 F 0.388 -0.278 o 691 1.34 Yes No
2018KF3 O C K 2018-05-27.36167 1.000E-05 20:50:48.050 1.500E-01 0.500 F 0.052 -0.006 +08° 10' 30.50" 1.000E-01 0.500 F 0.388 0.170 o 691 0.34 Yes No
2018KF3 O C K 2018-05-30.38174 1.000E-05 21:06:39.810 1.500E-01 0.500 F -0.080 0.153 +10° 51' 23.30" 1.000E-01 0.500 F 0.351 -0.108 o 691 0.38 Yes No
2018KF3 O C K 2018-05-30.39007 1.000E-05 21:06:42.400 1.500E-01 0.500 F -0.080 -0.104 +10° 51' 50.00" 1.000E-01 0.500 F 0.351 -0.190 o 691 0.44 Yes No
2018KF3 O C K 2018-05-30.39838 1.000E-05 21:06:45.020 1.500E-01 0.500 F -0.080 0.206 +10° 52' 17.00" 1.000E-01 0.500 F 0.351 0.101 o 691 0.46 Yes No
2018HJ O C K 2018-06-02.15737 1.000E-05 11:37:13.730 1.500E-01 0.500 F 0.111 -0.663 -12° 15' 46.90" 1.000E-01 0.500 F 0.051 0.676 21.4 R 0.70 0.28 o 691 2.02 Yes Yes
2018KK2 O C K 2018-06-02.16533 1.000E-05 11:04:25.150 1.500E-01 0.500 F 0.164 0.093 -10° 10' 19.90" 1.000E-01 0.500 F -0.033 0.490 o 691 1.00 Yes No
2014WO7 O C K 2018-06-02.16945 1.000E-05 11:11:14.970 1.500E-01 0.500 F 0.212 0.195 -03° 32' 05.70" 1.000E-01 0.500 F 0.019 -0.046 o 691 0.42 Yes No
2018HJ O C K 2018-06-02.17239 1.000E-05 11:37:14.430 1.500E-01 0.500 F 0.111 -0.376 -12° 15' 51.10" 1.000E-01 0.500 F 0.051 -0.058 20.8 R 0.70 -0.32 o 691 0.81 Yes Yes
2018KK2 O C K 2018-06-02.18265 1.000E-05 11:04:26.220 1.500E-01 0.500 F 0.164 -0.025 -10° 10' 14.40" 1.000E-01 0.500 F -0.033 0.062 o 691 0.13 Yes No
2014WO7 O C K 2018-06-02.18439 1.000E-05 11:11:24.510 1.500E-01 0.500 F 0.212 0.494 -03° 31' 17.70" 1.000E-01 0.500 F 0.019 0.316 o 691 1.22 Yes No
2018HJ O C K 2018-06-02.18733 1.000E-05 11:37:15.130 1.500E-01 0.500 F 0.111 -0.099 -12° 15' 54.80" 1.000E-01 0.500 F 0.051 -0.329 o 691 0.72 Yes No
2014WO7 O C K 2018-06-02.19930 1.000E-05 11:11:34.000 1.500E-01 0.500 F 0.212 0.187 -03° 30' 30.30" 1.000E-01 0.500 F 0.019 0.173 o 691 0.53 Yes No
2015BL311 O C K 2018-06-02.20223 1.000E-05 13:34:10.060 1.500E-01 0.500 F 0.273 -0.497 -07° 47' 48.40" 1.000E-01 0.500 F 0.067 0.237 o 691 1.12 Yes No
2015BL311 O C K 2018-06-02.21019 1.000E-05 13:34:07.090 1.500E-01 0.500 F 0.273 0.065 -07° 47' 29.90" 1.000E-01 0.500 F 0.067 -0.109 o 691 0.26 Yes No
2015BL311 O C K 2018-06-02.21811 1.000E-05 13:34:04.080 1.500E-01 0.500 F 0.273 -0.195 -07° 47' 10.90" 1.000E-01 0.500 F 0.067 0.128 o 691 0.48 Yes No
2018KG1 O C 2018-06-02.22686 1.000E-05 14:12:35.990 1.500E-01 0.500 F 0.273 -0.691 -14° 13' 03.70" 1.000E-01 0.500 F 0.018 -0.418 20.6 V 0.70 0.15 o 691 1.62 Yes Yes
2018KG1 O C 2018-06-02.23776 1.000E-05 14:12:35.160 1.500E-01 0.500 F 0.273 -0.145 -14° 12' 54.70" 1.000E-01 0.500 F 0.018 0.165 20.5 V 0.70 0.05 o 691 0.44 Yes Yes
2018JL O C K 2018-06-02.23947 1.000E-05 14:11:15.310 1.500E-01 0.500 F 0.340 -0.029 -25° 46' 12.30" 1.000E-01 0.500 F 0.417 0.247 o 691 0.52 Yes No
2018KG1 O C 2018-06-02.24840 1.000E-05 14:12:34.320 1.500E-01 0.500 F 0.273 -0.058 -14° 12' 46.60" 1.000E-01 0.500 F 0.018 0.039 20.5 V 0.70 0.05 o 691 0.14 Yes Yes
2018JL O C K 2018-06-02.25010 1.000E-05 14:11:13.400 1.500E-01 0.500 F 0.340 0.141 -25° 47' 29.50" 1.000E-01 0.500 F 0.417 0.189 o 691 0.49 Yes No
2018KM1 O C 2018-06-02.26591 1.000E-05 14:55:37.420 1.500E-01 0.500 F 0.242 -0.193 -04° 29' 28.50" 1.000E-01 0.500 F 0.144 -0.200 19.8 V 0.70 0.51 o 691 0.56 Yes Yes
2017XH62 O C 2018-06-02.26591 1.000E-05 14:53:17.120 1.500E-01 0.500 F 0.242 -0.529 -04° 06' 21.00" 1.000E-01 0.500 F 0.144 0.305 21.2 V 0.70 0.25 o 691 1.23 Yes Yes
2000SS164 O C 2018-06-02.26816 1.000E-05 14:46:24.010 1.500E-01 0.500 F 0.029 -1.178 -04° 03' 21.10" 1.000E-01 0.500 F 0.012 1.007 20.6 V 0.70 -0.07 o 691 3.11 Yes Yes
2018KM1 O C 2018-06-02.27644 1.000E-05 14:55:36.510 1.500E-01 0.500 F 0.242 -0.023 -04° 30' 15.00" 1.000E-01 0.500 F 0.144 -0.711 19.5 V 0.70 0.21 o 691 1.43 Yes Yes
2017XH62 O C 2018-06-02.27644 1.000E-05 14:53:17.000 1.500E-01 0.500 F 0.242 -0.414 -04° 06' 32.40" 1.000E-01 0.500 F 0.144 -0.326 20.7 V 0.70 -0.25 o 691 1.06 Yes Yes
2000SS164 O C 2018-06-02.27869 1.000E-05 14:46:23.650 1.500E-01 0.500 F 0.029 0.010 -04° 03' 21.70" 1.000E-01 0.500 F 0.012 0.189 20.9 V 0.70 0.23 o 691 0.38 Yes Yes
2018KM1 O C 2018-06-02.28693 1.000E-05 14:55:35.570 1.500E-01 0.500 F 0.242 -0.410 -04° 31' 00.20" 1.000E-01 0.500 F 0.144 -0.165 19.7 V 0.70 0.41 o 691 0.89 Yes Yes
2017XH62 O C 2018-06-02.28693 1.000E-05 14:53:16.830 1.500E-01 0.500 F 0.242 -1.071 -04° 06' 42.60" 1.000E-01 0.500 F 0.144 0.198 20.8 V 0.70 -0.15 o 691 2.19 Yes Yes
2000SS164 O C 2018-06-02.28918 1.000E-05 14:46:23.180 1.500E-01 0.500 F 0.029 -0.480 -04° 03' 21.90" 1.000E-01 0.500 F 0.012 -0.228 20.8 V 0.70 0.13 o 691 1.06 Yes Yes
2018JV2 O C H 2018-06-02.30094 1.000E-05 16:29:01.880 1.500E-01 0.500 F 0.310 -0.011 -08° 20' 21.10" 1.000E-01 0.500 F 0.200 -0.273 20.4 R 0.70 0.30 o 691 0.55 Yes Yes
2018JQ1 O C 2018-06-02.30300 1.000E-05 16:01:02.210 1.500E-01 0.500 F 0.136 -0.226 +01° 58' 40.20" 1.000E-01 0.500 F 0.103 -0.012 19.9 V 0.70 -0.04 o 691 0.46 Yes Yes
2018JV2 O C H 2018-06-02.31577 1.000E-05 16:29:02.380 1.500E-01 0.500 F 0.310 0.013 -08° 20' 56.80" 1.000E-01 0.500 F 0.200 0.219 20.2 R 0.70 0.10 o 691 0.44 Yes Yes
2018JQ1 O C 2018-06-02.31775 1.000E-05 16:01:03.740 1.500E-01 0.500 F 0.136 -0.155 +01° 58' 59.80" 1.000E-01 0.500 F 0.103 -0.025 19.9 V 0.70 -0.05 o 691 0.32 Yes Yes
2018JV2 O C H 2018-06-02.33046 1.000E-05 16:29:02.860 1.500E-01 0.500 F 0.310 -0.233 -08° 21' 32.70" 1.000E-01 0.500 F 0.200 0.103 20.4 R 0.70 0.30 o 691 0.51 Yes Yes
2018JQ1 O C 2018-06-02.33243 1.000E-05 16:01:05.250 1.500E-01 0.500 F 0.136 -0.325 +01° 59' 19.20" 1.000E-01 0.500 F 0.103 -0.117 20.1 V 0.70 0.15 o 691 0.70 Yes Yes
2018EQ4 O C 2018-06-02.34177 1.000E-05 15:29:32.880 1.500E-01 0.500 F 0.245 -0.705 +07° 02' 14.00" 1.000E-01 0.500 F 0.080 -0.343 20.8 V 0.70 -0.35 o 691 1.58 Yes Yes
2018EQ4 O C 2018-06-02.35109 1.000E-05 15:29:32.330 1.500E-01 0.500 F 0.245 -0.214 +07° 02' 06.70" 1.000E-01 0.500 F 0.080 0.152 21.1 V 0.70 -0.05 o 691 0.53 Yes Yes
2018EQ4 O C 2018-06-02.36034 1.000E-05 15:29:31.730 1.500E-01 0.500 F 0.245 -0.553 +07° 01' 58.30" 1.000E-01 0.500 F 0.080 -0.507 21.3 V 0.70 0.15 o 691 1.51 Yes Yes
2001DE47 O C 2018-06-02.37777 1.000E-05 16:52:26.360 1.500E-01 0.500 F -0.022 1.638 +23° 22' 10.70" 1.000E-01 0.500 F 0.202 1.354 19.8 V 0.70 -0.33 o 691 4.24 No Yes
2001DE47 O C 2018-06-02.38736 1.000E-05 16:52:25.090 1.500E-01 0.500 F -0.022 -0.205 +23° 22' 03.40" 1.000E-01 0.500 F 0.202 0.216 20.2 V 0.70 0.07 o 691 0.60 Yes Yes
2001DE47 O C 2018-06-02.39692 1.000E-05 16:52:23.950 1.500E-01 0.500 F -0.022 -0.324 +23° 21' 57.00" 1.000E-01 0.500 F 0.202 -0.021 20.1 V 0.70 -0.03 o 691 0.65 Yes Yes
2018JE5 O C K 2018-06-02.40242 1.000E-05 16:57:31.760 1.500E-01 0.500 F 0.071 -0.136 +09° 07' 30.30" 1.000E-01 0.500 F 0.243 -0.052 o 691 0.29 Yes No
2018JE5 O C K 2018-06-02.40879 1.000E-05 16:57:31.700 1.500E-01 0.500 F 0.071 0.105 +09° 07' 47.00" 1.000E-01 0.500 F 0.243 -0.128 o 691 0.33 Yes No
2018JE5 O C K 2018-06-02.41514 1.000E-05 16:57:31.620 1.500E-01 0.500 F 0.071 0.022 +09° 08' 03.70" 1.000E-01 0.500 F 0.243 -0.140 o 691 0.28 Yes No
2003KW16 O C K 2018-06-03.15615 1.000E-05 11:56:58.720 1.500E-01 0.500 F 0.570 -0.111 -28° 30' 48.30" 1.000E-01 0.500 F 0.095 -0.172 o 691 0.42 Yes No
2003KW16 O C K 2018-06-03.16169 1.000E-05 11:56:59.480 1.500E-01 0.500 F 0.570 -0.131 -28° 30' 23.50" 1.000E-01 0.500 F 0.095 -0.021 o 691 0.29 Yes No
2003KW16 O C K 2018-06-03.16721 1.000E-05 11:57:00.150 1.500E-01 0.500 F 0.570 -1.307 -28° 29' 59.30" 1.000E-01 0.500 F 0.095 -0.390 o 691 2.92 Yes No
2017KU34 O C K 2018-06-03.17651 1.000E-05 12:38:03.900 1.500E-01 0.500 F 0.263 -0.084 -16° 49' 46.30" 1.000E-01 0.500 F 0.202 -0.036 o 691 0.18 Yes No
2017KU34 O C K 2018-06-03.19053 1.000E-05 12:38:01.150 1.500E-01 0.500 F 0.263 0.394 -16° 49' 57.90" 1.000E-01 0.500 F 0.202 0.043 o 691 0.80 Yes No
2017KU34 O C K 2018-06-03.20446 1.000E-05 12:37:58.380 1.500E-01 0.500 F 0.263 0.172 -16° 50' 09.10" 1.000E-01 0.500 F 0.202 0.329 o 691 0.75 Yes No
2018KT2 O C K 2018-06-03.22543 1.000E-05 16:21:24.830 1.500E-01 0.500 F 0.210 0.481 -28° 48' 43.90" 1.000E-01 0.500 F 0.268 0.012 o 691 1.25 Yes No
2018KT2 O C K 2018-06-03.23493 1.000E-05 16:21:25.000 1.500E-01 0.500 F 0.210 -0.551 -28° 49' 01.50" 1.000E-01 0.500 F 0.268 0.012 o 691 1.44 Yes No
2010EW45 O C 2018-06-03.24535 1.000E-05 14:13:26.670 1.500E-01 0.500 F 0.284 -0.496 -13° 31' 05.20" 1.000E-01 0.500 F 0.099 -0.035 20.8 V 0.70 -0.16 o 691 1.00 Yes Yes
2018KG1 O C 2018-06-03.24535 1.000E-05 14:11:20.610 1.500E-01 0.500 F 0.210 -0.125 -14° 00' 01.40" 1.000E-01 0.500 F 0.109 0.336 20.2 V 0.70 -0.26 o 691 0.72 Yes Yes
2018HS3 O C K 2018-06-03.25205 1.000E-05 13:34:43.650 1.500E-01 0.500 F 0.020 -0.169 +16° 21' 44.90" 1.000E-01 0.500 F 0.091 0.651 o 691 1.39 Yes No
2018GX4 O C K 2018-06-03.25778 1.000E-05 12:24:11.570 1.500E-01 0.500 F 0.265 0.058 +07° 39' 22.80" 1.000E-01 0.500 F 0.127 -0.150 o 691 0.32 Yes No
2010EW45 O C 2018-06-03.26268 1.000E-05 14:13:25.360 1.500E-01 0.500 F 0.284 0.242 -13° 30' 57.40" 1.000E-01 0.500 F 0.099 0.054 20.4 V 0.70 -0.56 o 691 0.50 Yes Yes
2018KG1 O C 2018-06-03.26268 1.000E-05 14:11:19.270 1.500E-01 0.500 F 0.210 -0.116 -13° 59' 48.40" 1.000E-01 0.500 F 0.109 -0.011 20.5 V 0.70 0.04 o 691 0.23 Yes Yes
2018JS2 O C K 2018-06-03.26465 1.000E-05 12:50:47.130 1.500E-01 0.500 F 0.149 0.680 -05° 50' 46.10" 1.000E-01 0.500 F 0.225 -0.438 o 691 1.66 Yes No
2018HS3 O C K 2018-06-03.26917 1.000E-05 13:34:43.550 1.500E-01 0.500 F 0.020 -0.574 +16° 20' 32.80" 1.000E-01 0.500 F 0.091 0.315 o 691 1.35 Yes No
2018GX4 O C K 2018-06-03.27489 1.000E-05 12:24:10.910 1.500E-01 0.500 F 0.265 0.240 +07° 39' 07.70" 1.000E-01 0.500 F 0.127 -0.403 o 691 0.94 Yes No
2010EW45 O C 2018-06-03.27960 1.000E-05 14:13:23.960 1.500E-01 0.500 F 0.284 -0.832 -13° 30' 50.00" 1.000E-01 0.500 F 0.099 -0.087 21.2 V 0.70 0.24 o 691 1.68 Yes Yes
2018KG1 O C 2018-06-03.27960 1.000E-05 14:11:17.930 1.500E-01 0.500 F 0.210 -0.623 -13° 59' 35.60" 1.000E-01 0.500 F 0.109 -0.269 20.5 V 0.70 0.04 o 691 1.36 Yes Yes
2018JS2 O C K 2018-06-03.28148 1.000E-05 12:50:49.880 1.500E-01 0.500 F 0.149 0.030 -05° 51' 19.60" 1.000E-01 0.500 F 0.225 0.084 o 691 0.18 Yes No
2018HS3 O C K 2018-06-03.28601 1.000E-05 13:34:43.530 1.500E-01 0.500 F 0.020 0.039 +16° 19' 22.70" 1.000E-01 0.500 F 0.091 0.855 o 691 1.77 Yes No
2018GX4 O C K 2018-06-03.29173 1.000E-05 12:24:10.260 1.500E-01 0.500 F 0.265 0.320 +07° 38' 54.40" 1.000E-01 0.500 F 0.127 0.921 o 691 1.95 Yes No
2017XH62 O C K 2018-06-03.30109 1.000E-05 14:53:10.890 1.500E-01 0.500 F 0.242 0.017 -04° 23' 57.50" 1.000E-01 0.500 F 0.144 -0.264 20.8 R 0.70 0.20 o 691 0.53 Yes Yes
2018EQ4 O C K 2018-06-03.30579 1.000E-05 15:28:37.420 1.500E-01 0.500 F 0.185 -0.069 +06° 48' 48.80" 1.000E-01 0.500 F 0.142 -0.110 o 691 0.26 Yes No
2017XH62 O C K 2018-06-03.31929 1.000E-05 14:53:10.690 1.500E-01 0.500 F 0.242 -0.437 -04° 24' 15.50" 1.000E-01 0.500 F 0.144 0.173 20.7 R 0.70 0.09 o 691 0.95 Yes Yes
2018EQ4 O C K 2018-06-03.32399 1.000E-05 15:28:36.350 1.500E-01 0.500 F 0.185 0.286 +06° 48' 33.90" 1.000E-01 0.500 F 0.142 0.298 o 691 0.83 Yes No
2017XH62 O C K 2018-06-03.33743 1.000E-05 14:53:10.590 1.500E-01 0.500 F 0.242 0.501 -04° 24' 34.00" 1.000E-01 0.500 F 0.144 0.035 20.9 R 0.70 0.29 o 691 1.01 Yes Yes
2018EQ4 O C K 2018-06-03.34213 1.000E-05 15:28:35.250 1.500E-01 0.500 F 0.185 0.074 +06° 48' 18.60" 1.000E-01 0.500 F 0.142 0.272 o 691 0.57 Yes No
2018JQ1 O C K 2018-06-03.35296 1.000E-05 16:03:01.630 1.500E-01 0.500 F 0.234 0.057 +02° 21' 08.70" 1.000E-01 0.500 F 0.109 -0.286 o 691 0.59 Yes No
2018KM2 O C H 2018-06-03.35915 1.000E-05 16:17:43.400 1.500E-01 0.500 F 0.149 -0.041 -01° 55' 38.10" 1.000E-01 0.500 F 0.280 -0.119 o 691 0.25 Yes No
2018JQ1 O C K 2018-06-03.36343 1.000E-05 16:03:02.690 1.500E-01 0.500 F 0.234 -0.064 +02° 21' 22.00" 1.000E-01 0.500 F 0.109 0.085 o 691 0.22 Yes No
2018KM2 O C H 2018-06-03.36955 1.000E-05 16:17:42.030 1.500E-01 0.500 F 0.149 -0.911 -01° 55' 41.40" 1.000E-01 0.500 F 0.280 0.074 o 691 1.84 Yes No
2018KM2 O C H 2018-06-03.38018 1.000E-05 16:17:40.760 1.500E-01 0.500 F 0.149 0.129 -01° 55' 45.00" 1.000E-01 0.500 F 0.280 0.045 o 691 0.27 Yes No
2018JE5 O C H 2018-06-03.38479 1.000E-05 16:57:30.450 1.500E-01 0.500 F 0.031 0.176 +09° 49' 36.60" 1.000E-01 0.500 F 0.268 -0.066 18.9 R 0.70 -0.02 o 691 0.38 Yes Yes
2018JY1 O C K 2018-06-03.38613 1.000E-05 16:47:14.710 1.500E-01 0.500 F 0.296 -0.285 +06° 03' 32.10" 1.000E-01 0.500 F 0.265 0.155 o 691 0.66 Yes No
2018JE5 O C H 2018-06-03.39573 1.000E-05 16:57:30.310 1.500E-01 0.500 F 0.031 0.158 +09° 50' 03.50" 1.000E-01 0.500 F 0.268 -0.306 18.7 R 0.70 -0.22 o 691 0.69 Yes Yes
2018JE5 O C H 2018-06-03.40657 1.000E-05 16:57:30.200 1.500E-01 0.500 F 0.031 0.501 +09° 50' 30.60" 1.000E-01 0.500 F 0.268 -0.060 18.8 R 0.70 -0.12 o 691 1.01 Yes Yes
2018JY1 O C K 2018-06-03.40791 1.000E-05 16:47:24.350 1.500E-01 0.500 F 0.289 -0.003 +06° 02' 24.30" 1.000E-01 0.500 F 0.338 -0.129 o 691 0.26 Yes No
2018KQ1 O C K 2018-06-03.41588 1.000E-05 18:31:26.870 1.500E-01 0.500 F 0.035 0.294 +29° 08' 28.70" 1.000E-01 0.500 F 0.240 0.092 o 691 0.63 Yes No
2018LJ O C K 2018-06-03.42243 1.000E-05 16:31:35.740 1.500E-01 0.500 F 0.102 -0.044 +29° 37' 41.50" 1.000E-01 0.500 F 0.230 0.521 o 691 1.08 Yes No
2018KC3 O C K 2018-06-03.42550 1.000E-05 15:35:57.340 1.500E-01 0.500 F 0.147 0.061 +30° 37' 49.00" 1.000E-01 0.500 F 0.262 0.213 o 691 0.45 Yes No
2018LJ O C K 2018-06-03.43595 1.000E-05 16:31:28.340 1.500E-01 0.500 F 0.102 0.001 +29° 41' 52.30" 1.000E-01 0.500 F 0.230 0.351 o 691 0.73 Yes No
2018KC3 O C K 2018-06-03.43902 1.000E-05 15:35:51.980 1.500E-01 0.500 F 0.147 0.154 +30° 37' 25.40" 1.000E-01 0.500 F 0.262 -0.118 o 691 0.39 Yes No
2018KQ1 O C K 2018-06-03.44305 1.000E-05 18:31:43.640 1.500E-01 0.500 F 0.064 0.151 +29° 14' 41.10" 1.000E-01 0.500 F 0.193 0.138 o 691 0.42 Yes No
2018KC3 O C K 2018-06-03.45251 1.000E-05 15:35:46.660 1.500E-01 0.500 F 0.147 0.141 +30° 37' 01.70" 1.000E-01 0.500 F 0.262 -0.405 o 691 0.87 Yes No
2018LC O C K 2018-06-04.16763 1.000E-05 13:29:42.420 1.500E-01 0.500 F 0.213 -0.359 -10° 46' 36.80" 1.000E-01 0.500 F 0.124 0.448 o 691 1.17 Yes No
2018LC O C K 2018-06-04.18101 1.000E-05 13:29:46.240 1.500E-01 0.500 F 0.310 0.097 -10° 43' 26.90" 1.000E-01 0.500 F 0.057 0.155 o 691 0.37 Yes No
2018LG O C K 2018-06-04.18502 1.000E-05 13:43:44.880 1.500E-01 0.500 F 0.264 0.019 -20° 03' 45.90" 1.000E-01 0.500 F -0.179 -0.263 o 691 0.53 Yes No
2018LC O C K 2018-06-04.19448 1.000E-05 13:29:50.040 1.500E-01 0.500 F 0.310 -0.073 -10° 40' 15.10" 1.000E-01 0.500 F 0.057 0.234 o 691 0.50 Yes No
2018LG O C K 2018-06-04.19845 1.000E-05 13:43:46.370 1.500E-01 0.500 F 0.264 -0.721 -20° 02' 52.60" 1.000E-01 0.500 F -0.179 0.181 19.7 R 0.70 -0.35 o 691 1.50 Yes Yes
2018JQ1 O C 2018-06-04.23781 1.000E-05 16:04:41.810 1.500E-01 0.500 F 0.234 0.002 +02° 38' 50.90" 1.000E-01 0.500 F 0.109 -0.208 20.3 V 0.70 0.25 o 691 0.42 Yes Yes
2018JV2 O C H 2018-06-04.24181 1.000E-05 16:30:52.830 1.500E-01 0.500 F 0.174 1.118 -09° 39' 28.50" 1.000E-01 0.500 F 0.162 -0.186 o 691 2.28 Yes No
2018JQ1 O C 2018-06-04.24355 1.000E-05 16:04:42.380 1.500E-01 0.500 F 0.234 0.049 +02° 38' 57.20" 1.000E-01 0.500 F 0.109 -0.591 20.1 V 0.70 0.05 o 691 1.20 Yes Yes
2018JV2 O C H 2018-06-04.24755 1.000E-05 16:30:52.980 1.500E-01 0.500 F 0.174 0.377 -09° 39' 42.70" 1.000E-01 0.500 F 0.162 -0.239 20.3 R 0.70 0.19 o 691 0.90 Yes Yes
2018JQ1 O C 2018-06-04.24929 1.000E-05 16:04:42.940 1.500E-01 0.500 F 0.234 -0.045 +02° 39' 04.30" 1.000E-01 0.500 F 0.109 -0.170 20.2 V 0.70 0.15 o 691 0.35 Yes Yes
2018JV2 O C H 2018-06-04.25329 1.000E-05 16:30:53.160 1.500E-01 0.500 F 0.174 0.100 -09° 39' 56.70" 1.000E-01 0.500 F 0.162 -0.103 o 691 0.29 Yes No
2018KL O C K 2018-06-04.25776 1.000E-05 15:45:08.630 1.500E-01 0.500 F 0.126 0.607 -02° 02' 19.10" 1.000E-01 0.500 F 0.216 0.126 21.0 R 0.70 0.24 o 691 1.28 Yes Yes
2018KL O C K 2018-06-04.26641 1.000E-05 15:45:08.170 1.500E-01 0.500 F 0.126 0.215 -02° 02' 09.90" 1.000E-01 0.500 F 0.216 -0.180 20.7 R 0.70 -0.06 o 691 0.59 Yes Yes
2018KL O C K 2018-06-04.27507 1.000E-05 15:45:07.730 1.500E-01 0.500 F 0.126 0.125 -02° 02' 00.60" 1.000E-01 0.500 F 0.216 -0.393 21.3 R 0.70 0.54 o 691 0.86 Yes Yes
2018KL2 O C K 2018-06-04.30442 1.000E-05 15:13:18.840 1.500E-01 0.500 F 0.037 0.395 +07° 14' 45.50" 1.000E-01 0.500 F 0.199 -0.367 o 691 1.09 Yes No
2018KL2 O C K 2018-06-04.31273 1.000E-05 15:13:16.730 1.500E-01 0.500 F 0.037 1.405 +07° 15' 09.30" 1.000E-01 0.500 F 0.199 1.000 o 691 3.42 No No
2018KL2 O C K 2018-06-04.32102 1.000E-05 15:13:14.500 1.500E-01 0.500 F 0.037 0.519 +07° 15' 30.70" 1.000E-01 0.500 F 0.199 0.032 o 691 1.05 Yes No
1998WQ5 O C 2018-06-04.43991 1.000E-05 00:18:27.120 1.500E-01 0.500 F -0.167 -0.100 +26° 03' 42.10" 1.000E-01 0.500 F 0.290 0.344 21.0 V 0.70 0.72 o 691 0.72 Yes Yes
1998WQ5 O C 2018-06-04.44441 1.000E-05 00:18:27.460 1.500E-01 0.500 F -0.167 -0.151 +26° 03' 46.40" 1.000E-01 0.500 F 0.290 -0.007 20.6 V 0.70 0.32 o 691 0.30 Yes Yes
1998WQ5 O C 2018-06-04.44891 1.000E-05 00:18:27.780 1.500E-01 0.500 F -0.167 -0.469 +26° 03' 50.70" 1.000E-01 0.500 F 0.290 -0.358 20.6 V 0.70 0.32 o 691 1.18 Yes Yes
2016CX264 O C 2018-06-05.23814 1.000E-05 13:00:38.110 1.500E-01 0.500 F 0.241 -0.233 -19° 52' 24.40" 1.000E-01 0.500 F -0.144 -0.141 19.9 V 0.70 -0.19 o 691 0.55 Yes Yes
2016CX264 O C 2018-06-05.24178 1.000E-05 13:00:37.800 1.500E-01 0.500 F 0.241 -0.207 -19° 52' 27.30" 1.000E-01 0.500 F -0.144 -0.010 19.8 V 0.70 -0.29 o 691 0.42 Yes Yes
2016CX264 O C 2018-06-05.24541 1.000E-05 13:00:37.500 1.500E-01 0.500 F 0.241 -0.059 -19° 52' 30.50" 1.000E-01 0.500 F -0.144 -0.190 19.7 V 0.70 -0.39 o 691 0.40 Yes Yes
2018LF1 O C K 2018-06-06.19505 1.000E-05 16:43:01.710 1.500E-01 0.500 F 0.012 0.402 -06° 09' 02.70" 1.000E-01 0.500 F 0.050 1.425 o 691 2.98 Yes No
2018LF1 O C K 2018-06-06.20492 1.000E-05 16:43:02.290 1.500E-01 0.500 F 0.012 0.311 -06° 07' 50.20" 1.000E-01 0.500 F 0.050 2.350 o 691 4.71 No No
2018LN O C 2018-06-06.21504 1.000E-05 16:17:40.110 1.500E-01 0.500 F 0.246 -0.438 +01° 13' 34.10" 1.000E-01 0.500 F 0.273 -0.062 19.4 V 0.70 0.17 o 691 0.89 Yes Yes
2018LP2 O C K 2018-06-06.22274 1.000E-05 16:41:40.450 1.500E-01 0.500 F -0.105 -0.067 -13° 47' 14.10" 1.000E-01 0.500 F 0.277 -0.348 o 691 0.72 Yes No
2018LN O C 2018-06-06.23417 1.000E-05 16:17:36.020 1.500E-01 0.500 F 0.246 -0.274 +01° 15' 23.70" 1.000E-01 0.500 F 0.273 -0.013 19.7 V 0.70 0.47 o 691 0.55 Yes Yes
2018LP2 O C K 2018-06-06.24185 1.000E-05 16:41:37.750 1.500E-01 0.500 F -0.105 0.589 -13° 47' 32.20" 1.000E-01 0.500 F 0.277 0.004 o 691 1.19 Yes No
2018LN O C 2018-06-06.25331 1.000E-05 16:17:31.880 1.500E-01 0.500 F 0.246 -0.685 +01° 17' 13.20" 1.000E-01 0.500 F 0.273 -0.170 19.8 V 0.70 0.57 o 691 1.42 Yes Yes
2018LP2 O C K 2018-06-06.26100 1.000E-05 16:41:34.940 1.500E-01 0.500 F -0.105 -0.205 -13° 47' 50.70" 1.000E-01 0.500 F 0.277 -0.039 o 691 0.42 Yes No
2018JQ1 O C 2018-06-06.36332 1.000E-05 16:08:29.640 1.500E-01 0.500 F 0.293 -0.440 +03° 16' 52.80" 1.000E-01 0.500 F 0.136 0.092 20.5 V 0.70 0.33 o 691 0.91 Yes Yes
2018JQ1 O C 2018-06-06.37007 1.000E-05 16:08:30.320 1.500E-01 0.500 F 0.293 0.089 +03° 16' 59.20" 1.000E-01 0.500 F 0.136 -0.130 20.5 V 0.70 0.33 o 691 0.32 Yes Yes
2018JQ1 O C 2018-06-06.37681 1.000E-05 16:08:30.950 1.500E-01 0.500 F 0.293 -0.144 +03° 17' 05.80" 1.000E-01 0.500 F 0.136 -0.136 20.2 V 0.70 0.03 o 691 0.40 Yes Yes
2018KL2 O C 2018-06-07.16863 1.000E-05 15:01:16.470 1.500E-01 0.500 F 0.118 -0.100 +09° 22' 09.30" 1.000E-01 0.500 F 0.057 -0.005 20.4 V 0.70 -0.22 o 691 0.20 Yes Yes
2018KL2 O C 2018-06-07.18855 1.000E-05 15:01:11.180 1.500E-01 0.500 F 0.118 -0.091 +09° 23' 02.00" 1.000E-01 0.500 F 0.057 0.297 20.6 V 0.70 -0.02 o 691 0.63 Yes Yes

[1-200] [201-400] [401-600] [601-800] [801-1000] [1001-1200] [1201-1400] [1401-1600] [1601-1800] [1801-2000] [2001-2200] [2201-2400] [2401-2600] [2601-2800] [2801-3000] [3001-3200] [3201-3400] [3401-3600] [3601-3800] [3801-4000] [4001-4200] [4201-4400] [4401-4600] [4601-4800] [4801-5000] [5001-5200] [5201-5400] [5401-5600] [5601-5800] [5801-6000] [6001-6200] [6201-6400] [6401-6600] [6601-6800] [6801-7000] [7001-7200] [7201-7400] [7401-7600] [7601-7800] [7801-8000] [8001-8200] [8201-8400] [8401-8600] [8601-8800] [8801-9000] [9001-9200] [9201-9400] [9401-9600] [9601-9800] [9801-10000] [10001-10200] [10201-10400] [10401-10600] [10601-10800] [10801-11000] [11001-11200] [11201-11400] [11401-11600] [11601-11800] [11801-12000] [12001-12200] [12201-12400] [12401-12600] [12601-12800] [12801-13000] [13001-13200] [13201-13400] [13401-13600] [13601-13800] [13801-14000] [14001-14200] [14201-14400] [14401-14600] [14601-14800] [14801-15000] [15001-15200] [15201-15400] [15401-15600] [15601-15800] [15801-16000] [16001-16200] [16201-16400] [16401-16600] [16601-16800] [16801-17000] [17001-17200] [17201-17400] [17401-17600] [17601-17800] [17801-18000] [18001-18200] [18201-18400] [18401-18600] [18601-18800] [18801-19000] [19001-19200] [19201-19400] [19401-19600] [19601-19800] [19801-20000] [20001-20200] [20201-20400] [20401-20600] [20601-20800] [20801-21000] [21001-21200] [21201-21400] [21401-21600] [21601-21800] [21801-22000] [22001-22200] [22201-22400] [22401-22600] [22601-22800] [22801-23000] [23001-23200] [23201-23400] [23401-23600] [23601-23800] [23801-24000] [24001-24200] [24201-24400] [24401-24600] [24601-24800] [24801-25000] [25001-25200] [25201-25400] [25401-25600] [25601-25800] [25801-26000] [26001-26200] [26201-26400] [26401-26600] [26601-26800] [26801-27000] [27001-27200] [27201-27400] [27401-27600] [27601-27800] [27801-28000] [28001-28200] [28201-28400] [28401-28600] [28601-28800] [28801-29000] [29001-29200] [29201-29400] [29401-29600] [29601-29800] [29801-30000] [30001-30200] [30201-30400] [30401-30600] [30601-30800] [30801-31000] [31001-31200] [31201-31400] [31401-31600] [31601-31800] [31801-32000] [32001-32200] [32201-32400] [32401-32600] [32601-32800] [32801-33000] [33001-33200] [33201-33400] [33401-33600] [33601-33800] [33801-34000] [34001-34200] [34201-34400] [34401-34600] [34601-34800] [34801-35000] [35001-35200] [35201-35400] [35401-35600] [35601-35800] [35801-36000] [36001-36200] [36201-36400] [36401-36600] [36601-36800] [36801-37000] [37001-37200] [37201-37400] [37401-37600] [37601-37800] [37801-38000] [38001-38200] [38201-38400] [38401-38600] [38601-38800] [38801-39000] [39001-39200] [39201-39400] [39401-39600] [39601-39800] [39801-40000] [40001-40200] [40201-40400] [40401-40600] [40601-40800] [40801-41000] [41001-41200] [41201-41400] [41401-41600] [41601-41800] [41801-42000] [42001-42200] [42201-42400] [42401-42600] [42601-42800] [42801-43000] [43001-43200] [43201-43400] [43401-43600] [43601-43800] [43801-44000] [44001-44200] [44201-44400] [44401-44600] [44601-44800] [44801-45000] [45001-45200] [45201-45400] [45401-45600] [45601-45800] [45801-46000] [46001-46200] [46201-46400] [46401-46600] [46601-46800] [46801-47000] [47001-47200] [47201-47400] [47401-47600] [47601-47800] [47801-48000] [48001-48200] [48201-48400] [48401-48600] [48601-48800] [48801-49000] [49001-49200] [49201-49400] [49401-49600] [49601-49800] [49801-50000] [50001-50200] [50201-50388]